sensor_id;sensor_type;location;lat;lon;timestamp;temperature;humidity
13892;DHT22;7016;48.172;8.058;2023-06-22T00:00:08;21.30;99.90
13892;DHT22;7016;48.172;8.058;2023-06-22T00:02:57;21.20;99.90
13892;DHT22;7016;48.172;8.058;2023-06-22T00:05:48;21.20;99.90
13892;DHT22;7016;48.172;8.058;2023-06-22T00:08:34;21.30;99.90
13892;DHT22;7016;48.172;8.058;2023-06-22T00:11:20;21.20;99.90
13892;DHT22;7016;48.172;8.058;2023-06-22T00:14:07;21.30;99.90
13892;DHT22;7016;48.172;8.058;2023-06-22T00:16:53;21.30;99.90
13892;DHT22;7016;48.172;8.058;2023-06-22T00:19:43;21.30;99.90
13892;DHT22;7016;48.172;8.058;2023-06-22T00:22:29;21.30;99.90
13892;DHT22;7016;48.172;8.058;2023-06-22T00:25:15;21.20;99.90
13892;DHT22;7016;48.172;8.058;2023-06-22T00:28:02;21.10;99.90
13892;DHT22;7016;48.172;8.058;2023-06-22T00:30:49;21.20;99.90
13892;DHT22;7016;48.172;8.058;2023-06-22T00:33:36;21.10;99.90
13892;DHT22;7016;48.172;8.058;2023-06-22T00:36:22;21.10;99.90
13892;DHT22;7016;48.172;8.058;2023-06-22T00:39:10;21.10;99.90
13892;DHT22;7016;48.172;8.058;2023-06-22T00:41:56;21.10;99.90
13892;DHT22;7016;48.172;8.058;2023-06-22T00:44:43;20.90;99.90
13892;DHT22;7016;48.172;8.058;2023-06-22T00:47:30;20.90;99.90
13892;DHT22;7016;48.172;8.058;2023-06-22T00:50:22;20.90;99.90
13892;DHT22;7016;48.172;8.058;2023-06-22T00:53:09;20.90;99.90
13892;DHT22;7016;48.172;8.058;2023-06-22T00:55:55;20.70;99.90
13892;DHT22;7016;48.172;8.058;2023-06-22T00:58:41;20.70;99.90
13892;DHT22;7016;48.172;8.058;2023-06-22T01:01:28;20.70;99.90
13892;DHT22;7016;48.172;8.058;2023-06-22T01:04:15;20.60;99.90
13892;DHT22;7016;48.172;8.058;2023-06-22T01:07:28;20.70;99.90
13892;DHT22;7016;48.172;8.058;2023-06-22T01:16:35;20.60;99.90
13892;DHT22;7016;48.172;8.058;2023-06-22T01:19:46;20.60;99.90
13892;DHT22;7016;48.172;8.058;2023-06-22T01:25:50;20.40;99.90
13892;DHT22;7016;48.172;8.058;2023-06-22T01:28:43;20.50;99.90
13892;DHT22;7016;48.172;8.058;2023-06-22T01:31:31;20.50;99.90
13892;DHT22;7016;48.172;8.058;2023-06-22T01:34:19;20.50;99.90
13892;DHT22;7016;48.172;8.058;2023-06-22T01:37:06;20.40;99.90
13892;DHT22;7016;48.172;8.058;2023-06-22T01:39:54;20.50;99.90
13892;DHT22;7016;48.172;8.058;2023-06-22T01:42:41;20.50;99.90
13892;DHT22;7016;48.172;8.058;2023-06-22T01:45:29;20.50;99.90
13892;DHT22;7016;48.172;8.058;2023-06-22T01:48:15;20.40;99.90
13892;DHT22;7016;48.172;8.058;2023-06-22T01:51:02;20.40;99.90
13892;DHT22;7016;48.172;8.058;2023-06-22T01:53:49;20.40;99.90
13892;DHT22;7016;48.172;8.058;2023-06-22T01:56:35;20.40;99.90
13892;DHT22;7016;48.172;8.058;2023-06-22T01:59:33;20.40;99.90
13892;DHT22;7016;48.172;8.058;2023-06-22T02:02:21;20.40;99.90
13892;DHT22;7016;48.172;8.058;2023-06-22T02:05:16;20.40;99.90
13892;DHT22;7016;48.172;8.058;2023-06-22T02:08:15;20.30;99.90
13892;DHT22;7016;48.172;8.058;2023-06-22T02:11:06;20.20;99.90
13892;DHT22;7016;48.172;8.058;2023-06-22T02:13:52;20.20;99.90
13892;DHT22;7016;48.172;8.058;2023-06-22T02:16:39;20.20;99.90
13892;DHT22;7016;48.172;8.058;2023-06-22T02:19:27;20.10;99.90
13892;DHT22;7016;48.172;8.058;2023-06-22T02:22:13;20.10;99.90
13892;DHT22;7016;48.172;8.058;2023-06-22T02:24:59;20.20;99.90
13892;DHT22;7016;48.172;8.058;2023-06-22T02:27:46;20.10;99.90
13892;DHT22;7016;48.172;8.058;2023-06-22T02:30:32;20.10;99.90
13892;DHT22;7016;48.172;8.058;2023-06-22T02:33:18;20.10;99.90
13892;DHT22;7016;48.172;8.058;2023-06-22T02:36:05;19.80;99.90
13892;DHT22;7016;48.172;8.058;2023-06-22T02:41:43;19.90;99.90
13892;DHT22;7016;48.172;8.058;2023-06-22T02:44:29;20.00;99.90
13892;DHT22;7016;48.172;8.058;2023-06-22T02:47:15;19.90;99.90
13892;DHT22;7016;48.172;8.058;2023-06-22T02:50:02;20.10;99.90
13892;DHT22;7016;48.172;8.058;2023-06-22T02:52:48;20.10;99.90
13892;DHT22;7016;48.172;8.058;2023-06-22T02:55:34;20.00;99.90
13892;DHT22;7016;48.172;8.058;2023-06-22T02:58:20;19.90;99.90
13892;DHT22;7016;48.172;8.058;2023-06-22T03:01:07;19.90;99.90
13892;DHT22;7016;48.172;8.058;2023-06-22T03:03:54;19.90;99.90
13892;DHT22;7016;48.172;8.058;2023-06-22T03:06:40;20.00;99.90
13892;DHT22;7016;48.172;8.058;2023-06-22T03:09:27;19.90;99.90
13892;DHT22;7016;48.172;8.058;2023-06-22T03:12:14;19.90;99.90
13892;DHT22;7016;48.172;8.058;2023-06-22T03:15:00;19.90;99.90
13892;DHT22;7016;48.172;8.058;2023-06-22T03:17:47;20.00;99.90
13892;DHT22;7016;48.172;8.058;2023-06-22T03:20:33;20.10;99.90
13892;DHT22;7016;48.172;8.058;2023-06-22T03:23:19;20.00;99.90
13892;DHT22;7016;48.172;8.058;2023-06-22T03:26:05;19.90;99.90
13892;DHT22;7016;48.172;8.058;2023-06-22T03:28:52;19.80;99.90
13892;DHT22;7016;48.172;8.058;2023-06-22T03:31:38;19.70;99.90
13892;DHT22;7016;48.172;8.058;2023-06-22T03:34:24;19.80;99.90
13892;DHT22;7016;48.172;8.058;2023-06-22T03:37:10;19.80;99.90
13892;DHT22;7016;48.172;8.058;2023-06-22T03:39:56;19.80;99.90
13892;DHT22;7016;48.172;8.058;2023-06-22T03:42:42;19.70;99.90
13892;DHT22;7016;48.172;8.058;2023-06-22T03:45:29;19.70;99.90
13892;DHT22;7016;48.172;8.058;2023-06-22T03:48:15;19.70;99.90
13892;DHT22;7016;48.172;8.058;2023-06-22T03:51:02;19.80;99.90
13892;DHT22;7016;48.172;8.058;2023-06-22T03:53:51;19.80;99.90
13892;DHT22;7016;48.172;8.058;2023-06-22T03:56:37;19.90;99.90
13892;DHT22;7016;48.172;8.058;2023-06-22T03:59:24;19.90;99.90
13892;DHT22;7016;48.172;8.058;2023-06-22T04:02:10;19.80;99.90
13892;DHT22;7016;48.172;8.058;2023-06-22T04:04:57;19.80;99.90
13892;DHT22;7016;48.172;8.058;2023-06-22T04:07:43;19.80;99.90
13892;DHT22;7016;48.172;8.058;2023-06-22T04:10:29;19.80;99.90
13892;DHT22;7016;48.172;8.058;2023-06-22T04:13:15;19.90;99.90
13892;DHT22;7016;48.172;8.058;2023-06-22T04:16:01;19.90;99.90
13892;DHT22;7016;48.172;8.058;2023-06-22T04:18:47;19.90;99.90
13892;DHT22;7016;48.172;8.058;2023-06-22T04:21:34;19.90;99.90
13892;DHT22;7016;48.172;8.058;2023-06-22T04:24:20;20.00;99.90
13892;DHT22;7016;48.172;8.058;2023-06-22T04:27:06;20.10;99.90
13892;DHT22;7016;48.172;8.058;2023-06-22T04:29:52;20.00;99.90
13892;DHT22;7016;48.172;8.058;2023-06-22T04:32:38;20.00;99.90
13892;DHT22;7016;48.172;8.058;2023-06-22T04:35:26;19.90;99.90
13892;DHT22;7016;48.172;8.058;2023-06-22T04:38:14;20.00;99.90
13892;DHT22;7016;48.172;8.058;2023-06-22T04:41:00;20.10;99.90
13892;DHT22;7016;48.172;8.058;2023-06-22T04:43:48;20.10;99.90
13892;DHT22;7016;48.172;8.058;2023-06-22T04:46:40;20.20;99.90
13892;DHT22;7016;48.172;8.058;2023-06-22T04:49:27;20.20;99.90
13892;DHT22;7016;48.172;8.058;2023-06-22T04:52:22;20.20;99.90
13892;DHT22;7016;48.172;8.058;2023-06-22T04:55:08;20.20;99.90
13892;DHT22;7016;48.172;8.058;2023-06-22T04:57:54;20.20;99.90
13892;DHT22;7016;48.172;8.058;2023-06-22T05:00:41;20.20;99.90
13892;DHT22;7016;48.172;8.058;2023-06-22T05:03:27;20.20;99.90
13892;DHT22;7016;48.172;8.058;2023-06-22T05:06:13;20.30;99.90
13892;DHT22;7016;48.172;8.058;2023-06-22T05:09:00;20.30;99.90
13892;DHT22;7016;48.172;8.058;2023-06-22T05:11:47;20.30;99.90
13892;DHT22;7016;48.172;8.058;2023-06-22T05:14:33;20.30;99.90
13892;DHT22;7016;48.172;8.058;2023-06-22T05:17:19;20.40;99.90
13892;DHT22;7016;48.172;8.058;2023-06-22T05:20:06;22.50;99.90
13892;DHT22;7016;48.172;8.058;2023-06-22T05:22:53;20.60;99.90
13892;DHT22;7016;48.172;8.058;2023-06-22T05:25:39;20.60;99.90
13892;DHT22;7016;48.172;8.058;2023-06-22T05:28:25;20.70;99.90
13892;DHT22;7016;48.172;8.058;2023-06-22T05:31:13;20.70;99.90
13892;DHT22;7016;48.172;8.058;2023-06-22T05:34:00;20.80;99.90
13892;DHT22;7016;48.172;8.058;2023-06-22T05:36:46;20.80;99.90
13892;DHT22;7016;48.172;8.058;2023-06-22T05:39:32;21.00;99.90
13892;DHT22;7016;48.172;8.058;2023-06-22T05:42:18;21.10;99.90
13892;DHT22;7016;48.172;8.058;2023-06-22T05:45:05;21.20;99.90
13892;DHT22;7016;48.172;8.058;2023-06-22T05:47:51;21.30;99.90
13892;DHT22;7016;48.172;8.058;2023-06-22T05:50:38;21.50;99.90
13892;DHT22;7016;48.172;8.058;2023-06-22T05:53:24;21.50;99.90
13892;DHT22;7016;48.172;8.058;2023-06-22T05:56:10;21.70;99.90
13892;DHT22;7016;48.172;8.058;2023-06-22T05:58:56;21.90;99.90
13892;DHT22;7016;48.172;8.058;2023-06-22T06:01:42;21.90;99.90
13892;DHT22;7016;48.172;8.058;2023-06-22T06:04:28;22.00;99.90
13892;DHT22;7016;48.172;8.058;2023-06-22T06:07:14;22.10;99.90
13892;DHT22;7016;48.172;8.058;2023-06-22T06:10:01;22.20;99.90
13892;DHT22;7016;48.172;8.058;2023-06-22T06:12:47;22.30;99.90
13892;DHT22;7016;48.172;8.058;2023-06-22T06:15:34;22.30;99.90
13892;DHT22;7016;48.172;8.058;2023-06-22T06:18:21;22.40;99.90
13892;DHT22;7016;48.172;8.058;2023-06-22T06:21:07;22.50;99.90
13892;DHT22;7016;48.172;8.058;2023-06-22T06:23:53;22.60;99.90
13892;DHT22;7016;48.172;8.058;2023-06-22T06:26:39;22.70;99.90
13892;DHT22;7016;48.172;8.058;2023-06-22T06:29:25;22.90;99.90
13892;DHT22;7016;48.172;8.058;2023-06-22T06:32:11;22.80;99.90
13892;DHT22;7016;48.172;8.058;2023-06-22T06:34:58;22.90;99.90
13892;DHT22;7016;48.172;8.058;2023-06-22T06:37:45;23.00;99.90
13892;DHT22;7016;48.172;8.058;2023-06-22T06:40:32;23.00;99.90
13892;DHT22;7016;48.172;8.058;2023-06-22T06:43:18;23.10;99.90
13892;DHT22;7016;48.172;8.058;2023-06-22T06:46:04;23.10;99.90
13892;DHT22;7016;48.172;8.058;2023-06-22T06:48:51;23.10;99.90
13892;DHT22;7016;48.172;8.058;2023-06-22T06:51:37;23.10;99.90
13892;DHT22;7016;48.172;8.058;2023-06-22T06:54:23;23.10;99.90
13892;DHT22;7016;48.172;8.058;2023-06-22T06:57:09;23.10;99.90
13892;DHT22;7016;48.172;8.058;2023-06-22T06:59:57;23.00;99.90
13892;DHT22;7016;48.172;8.058;2023-06-22T07:02:44;22.90;99.90
13892;DHT22;7016;48.172;8.058;2023-06-22T07:05:31;22.70;99.90
13892;DHT22;7016;48.172;8.058;2023-06-22T07:08:17;22.70;99.90
13892;DHT22;7016;48.172;8.058;2023-06-22T07:11:03;22.60;99.90
13892;DHT22;7016;48.172;8.058;2023-06-22T07:13:49;22.40;99.90
13892;DHT22;7016;48.172;8.058;2023-06-22T07:16:35;22.10;99.90
13892;DHT22;7016;48.172;8.058;2023-06-22T07:19:26;21.80;99.90
13892;DHT22;7016;48.172;8.058;2023-06-22T07:22:15;21.80;99.90
13892;DHT22;7016;48.172;8.058;2023-06-22T07:25:01;21.80;99.90
13892;DHT22;7016;48.172;8.058;2023-06-22T07:27:58;21.90;99.90
13892;DHT22;7016;48.172;8.058;2023-06-22T07:30:45;22.00;99.90
13892;DHT22;7016;48.172;8.058;2023-06-22T07:33:32;22.10;99.90
13892;DHT22;7016;48.172;8.058;2023-06-22T07:36:18;22.10;99.90
13892;DHT22;7016;48.172;8.058;2023-06-22T07:39:05;22.30;99.90
13892;DHT22;7016;48.172;8.058;2023-06-22T07:41:52;22.20;99.90
13892;DHT22;7016;48.172;8.058;2023-06-22T07:44:38;22.60;99.90
13892;DHT22;7016;48.172;8.058;2023-06-22T07:47:24;22.90;99.90
13892;DHT22;7016;48.172;8.058;2023-06-22T07:50:14;23.10;99.90
13892;DHT22;7016;48.172;8.058;2023-06-22T07:53:00;23.10;99.90
13892;DHT22;7016;48.172;8.058;2023-06-22T07:55:46;23.00;99.90
13892;DHT22;7016;48.172;8.058;2023-06-22T07:58:32;22.80;99.90
13892;DHT22;7016;48.172;8.058;2023-06-22T08:01:19;22.50;99.90
13892;DHT22;7016;48.172;8.058;2023-06-22T08:04:08;22.50;99.90
13892;DHT22;7016;48.172;8.058;2023-06-22T08:06:54;22.50;99.90
13892;DHT22;7016;48.172;8.058;2023-06-22T08:09:46;22.50;99.90
13892;DHT22;7016;48.172;8.058;2023-06-22T08:12:32;22.50;99.90
13892;DHT22;7016;48.172;8.058;2023-06-22T08:15:19;22.70;99.90
13892;DHT22;7016;48.172;8.058;2023-06-22T08:18:05;22.90;99.90
13892;DHT22;7016;48.172;8.058;2023-06-22T08:20:51;23.10;99.90
13892;DHT22;7016;48.172;8.058;2023-06-22T08:23:38;23.30;99.90
13892;DHT22;7016;48.172;8.058;2023-06-22T08:26:24;23.50;99.90
13892;DHT22;7016;48.172;8.058;2023-06-22T08:29:10;23.70;99.90
13892;DHT22;7016;48.172;8.058;2023-06-22T08:31:56;23.70;99.90
13892;DHT22;7016;48.172;8.058;2023-06-22T08:34:42;23.70;99.90
13892;DHT22;7016;48.172;8.058;2023-06-22T08:37:29;23.90;99.90
13892;DHT22;7016;48.172;8.058;2023-06-22T08:40:21;23.80;99.90
13892;DHT22;7016;48.172;8.058;2023-06-22T08:43:07;23.90;99.90
13892;DHT22;7016;48.172;8.058;2023-06-22T08:45:53;24.00;99.90
13892;DHT22;7016;48.172;8.058;2023-06-22T08:48:40;24.00;99.90
13892;DHT22;7016;48.172;8.058;2023-06-22T08:51:26;24.10;99.90
13892;DHT22;7016;48.172;8.058;2023-06-22T08:54:13;24.30;99.90
13892;DHT22;7016;48.172;8.058;2023-06-22T08:57:00;24.30;99.90
13892;DHT22;7016;48.172;8.058;2023-06-22T08:59:46;24.40;99.90
13892;DHT22;7016;48.172;8.058;2023-06-22T09:02:32;24.40;99.90
13892;DHT22;7016;48.172;8.058;2023-06-22T09:05:18;24.50;99.90
13892;DHT22;7016;48.172;8.058;2023-06-22T09:08:04;24.60;99.90
13892;DHT22;7016;48.172;8.058;2023-06-22T09:10:50;24.70;99.90
13892;DHT22;7016;48.172;8.058;2023-06-22T09:13:37;24.70;99.90
13892;DHT22;7016;48.172;8.058;2023-06-22T09:16:23;24.70;99.90
13892;DHT22;7016;48.172;8.058;2023-06-22T09:19:09;24.70;99.90
13892;DHT22;7016;48.172;8.058;2023-06-22T09:21:55;24.80;99.90
13892;DHT22;7016;48.172;8.058;2023-06-22T09:24:41;24.90;99.90
13892;DHT22;7016;48.172;8.058;2023-06-22T09:27:27;24.90;99.90
13892;DHT22;7016;48.172;8.058;2023-06-22T09:30:14;25.00;99.90
13892;DHT22;7016;48.172;8.058;2023-06-22T09:33:00;25.00;99.90
13892;DHT22;7016;48.172;8.058;2023-06-22T09:35:47;25.10;99.90
13892;DHT22;7016;48.172;8.058;2023-06-22T09:38:39;25.30;99.90
13892;DHT22;7016;48.172;8.058;2023-06-22T09:41:25;25.50;99.90
13892;DHT22;7016;48.172;8.058;2023-06-22T09:44:11;25.60;99.90
13892;DHT22;7016;48.172;8.058;2023-06-22T09:46:58;25.60;99.90
13892;DHT22;7016;48.172;8.058;2023-06-22T09:49:44;25.70;99.90
13892;DHT22;7016;48.172;8.058;2023-06-22T09:52:30;25.70;99.90
13892;DHT22;7016;48.172;8.058;2023-06-22T09:55:17;25.90;99.90
13892;DHT22;7016;48.172;8.058;2023-06-22T09:58:03;26.00;99.90
13892;DHT22;7016;48.172;8.058;2023-06-22T10:00:49;26.20;99.90
13892;DHT22;7016;48.172;8.058;2023-06-22T10:03:35;26.20;99.90
13892;DHT22;7016;48.172;8.058;2023-06-22T10:06:22;26.30;99.90
13892;DHT22;7016;48.172;8.058;2023-06-22T10:09:08;26.50;99.90
13892;DHT22;7016;48.172;8.058;2023-06-22T10:11:54;26.50;99.90
13892;DHT22;7016;48.172;8.058;2023-06-22T10:14:40;26.60;99.90
13892;DHT22;7016;48.172;8.058;2023-06-22T10:17:30;26.70;99.90
13892;DHT22;7016;48.172;8.058;2023-06-22T10:20:16;26.70;99.90
13892;DHT22;7016;48.172;8.058;2023-06-22T10:23:04;26.70;99.90
13892;DHT22;7016;48.172;8.058;2023-06-22T10:25:50;26.70;99.90
13892;DHT22;7016;48.172;8.058;2023-06-22T10:28:36;26.70;99.90
13892;DHT22;7016;48.172;8.058;2023-06-22T10:31:22;26.70;99.90
13892;DHT22;7016;48.172;8.058;2023-06-22T10:34:08;26.80;99.90
13892;DHT22;7016;48.172;8.058;2023-06-22T10:36:55;26.80;99.90
13892;DHT22;7016;48.172;8.058;2023-06-22T10:39:41;26.90;99.90
13892;DHT22;7016;48.172;8.058;2023-06-22T10:42:27;27.00;99.90
13892;DHT22;7016;48.172;8.058;2023-06-22T10:45:13;27.00;99.90
13892;DHT22;7016;48.172;8.058;2023-06-22T10:48:00;27.10;99.90
13892;DHT22;7016;48.172;8.058;2023-06-22T10:50:46;27.10;99.90
13892;DHT22;7016;48.172;8.058;2023-06-22T10:53:33;27.20;99.90
13892;DHT22;7016;48.172;8.058;2023-06-22T10:56:19;27.30;99.90
13892;DHT22;7016;48.172;8.058;2023-06-22T10:59:05;27.30;99.90
13892;DHT22;7016;48.172;8.058;2023-06-22T11:01:52;27.30;99.90
13892;DHT22;7016;48.172;8.058;2023-06-22T11:04:39;27.40;99.90
13892;DHT22;7016;48.172;8.058;2023-06-22T11:07:25;27.40;99.90
13892;DHT22;7016;48.172;8.058;2023-06-22T11:10:13;27.40;99.90
13892;DHT22;7016;48.172;8.058;2023-06-22T11:12:59;27.40;99.90
13892;DHT22;7016;48.172;8.058;2023-06-22T11:15:45;27.40;99.90
13892;DHT22;7016;48.172;8.058;2023-06-22T11:18:31;27.40;99.90
13892;DHT22;7016;48.172;8.058;2023-06-22T11:21:19;27.50;99.90
13892;DHT22;7016;48.172;8.058;2023-06-22T11:24:06;27.60;99.90
13892;DHT22;7016;48.172;8.058;2023-06-22T11:26:52;27.70;99.90
13892;DHT22;7016;48.172;8.058;2023-06-22T11:29:38;27.70;99.90
13892;DHT22;7016;48.172;8.058;2023-06-22T11:32:25;27.70;99.90
13892;DHT22;7016;48.172;8.058;2023-06-22T11:35:12;27.80;99.90
13892;DHT22;7016;48.172;8.058;2023-06-22T11:37:58;27.70;99.90
13892;DHT22;7016;48.172;8.058;2023-06-22T11:40:44;27.70;99.90
13892;DHT22;7016;48.172;8.058;2023-06-22T11:43:30;27.70;99.90
13892;DHT22;7016;48.172;8.058;2023-06-22T11:46:16;27.70;99.90
13892;DHT22;7016;48.172;8.058;2023-06-22T11:49:02;27.80;99.90
13892;DHT22;7016;48.172;8.058;2023-06-22T11:51:49;27.70;99.90
13892;DHT22;7016;48.172;8.058;2023-06-22T11:54:35;27.80;99.90
13892;DHT22;7016;48.172;8.058;2023-06-22T11:57:21;27.90;99.90
13892;DHT22;7016;48.172;8.058;2023-06-22T12:00:08;27.90;99.90
13892;DHT22;7016;48.172;8.058;2023-06-22T12:03:02;27.90;99.90
13892;DHT22;7016;48.172;8.058;2023-06-22T12:05:49;27.90;99.90
13892;DHT22;7016;48.172;8.058;2023-06-22T12:08:35;27.90;99.90
13892;DHT22;7016;48.172;8.058;2023-06-22T12:11:21;27.90;99.90
13892;DHT22;7016;48.172;8.058;2023-06-22T12:14:07;27.90;99.90
13892;DHT22;7016;48.172;8.058;2023-06-22T12:16:53;27.90;99.90
13892;DHT22;7016;48.172;8.058;2023-06-22T12:19:40;27.90;99.90
13892;DHT22;7016;48.172;8.058;2023-06-22T12:22:26;27.90;99.90
13892;DHT22;7016;48.172;8.058;2023-06-22T12:25:12;27.90;99.90
13892;DHT22;7016;48.172;8.058;2023-06-22T12:27:58;27.90;99.90
13892;DHT22;7016;48.172;8.058;2023-06-22T12:30:44;27.90;99.90
13892;DHT22;7016;48.172;8.058;2023-06-22T12:33:30;27.80;99.90
13892;DHT22;7016;48.172;8.058;2023-06-22T12:36:16;27.80;99.90
13892;DHT22;7016;48.172;8.058;2023-06-22T12:39:03;27.90;99.90
13892;DHT22;7016;48.172;8.058;2023-06-22T12:41:49;27.90;99.90
13892;DHT22;7016;48.172;8.058;2023-06-22T12:44:37;27.90;99.90
13892;DHT22;7016;48.172;8.058;2023-06-22T12:47:23;27.90;99.90
13892;DHT22;7016;48.172;8.058;2023-06-22T12:50:09;27.90;99.90
13892;DHT22;7016;48.172;8.058;2023-06-22T12:52:55;27.90;99.90
13892;DHT22;7016;48.172;8.058;2023-06-22T12:55:41;27.90;99.90
13892;DHT22;7016;48.172;8.058;2023-06-22T12:58:28;27.80;99.90
13892;DHT22;7016;48.172;8.058;2023-06-22T13:01:14;27.60;99.90
13892;DHT22;7016;48.172;8.058;2023-06-22T13:04:00;26.40;99.90
13892;DHT22;7016;48.172;8.058;2023-06-22T13:06:46;27.50;99.90
13892;DHT22;7016;48.172;8.058;2023-06-22T13:09:33;27.40;99.90
13892;DHT22;7016;48.172;8.058;2023-06-22T13:12:20;27.30;99.90
13892;DHT22;7016;48.172;8.058;2023-06-22T13:15:07;27.40;99.90
13892;DHT22;7016;48.172;8.058;2023-06-22T13:17:54;27.30;99.90
13892;DHT22;7016;48.172;8.058;2023-06-22T13:20:40;27.30;99.90
13892;DHT22;7016;48.172;8.058;2023-06-22T13:23:26;27.20;99.90
13892;DHT22;7016;48.172;8.058;2023-06-22T13:26:12;27.10;99.90
13892;DHT22;7016;48.172;8.058;2023-06-22T13:28:59;27.20;99.90
13892;DHT22;7016;48.172;8.058;2023-06-22T13:31:45;27.10;99.90
13892;DHT22;7016;48.172;8.058;2023-06-22T13:34:31;27.20;99.90
13892;DHT22;7016;48.172;8.058;2023-06-22T13:37:17;27.20;99.90
13892;DHT22;7016;48.172;8.058;2023-06-22T13:40:05;27.20;99.90
13892;DHT22;7016;48.172;8.058;2023-06-22T13:42:52;27.20;99.90
13892;DHT22;7016;48.172;8.058;2023-06-22T13:45:38;27.30;99.90
13892;DHT22;7016;48.172;8.058;2023-06-22T13:48:25;27.40;99.90
13892;DHT22;7016;48.172;8.058;2023-06-22T13:51:11;26.70;99.90
13892;DHT22;7016;48.172;8.058;2023-06-22T13:53:58;27.30;99.90
13892;DHT22;7016;48.172;8.058;2023-06-22T13:56:44;27.30;99.90
13892;DHT22;7016;48.172;8.058;2023-06-22T13:59:30;27.40;99.90
13892;DHT22;7016;48.172;8.058;2023-06-22T14:02:17;27.40;99.90
13892;DHT22;7016;48.172;8.058;2023-06-22T14:05:03;27.30;99.90
13892;DHT22;7016;48.172;8.058;2023-06-22T14:07:49;27.30;99.90
13892;DHT22;7016;48.172;8.058;2023-06-22T14:10:36;27.20;99.90
13892;DHT22;7016;48.172;8.058;2023-06-22T14:13:22;27.20;99.90
13892;DHT22;7016;48.172;8.058;2023-06-22T14:16:08;27.10;99.90
13892;DHT22;7016;48.172;8.058;2023-06-22T14:18:54;27.10;99.90
13892;DHT22;7016;48.172;8.058;2023-06-22T14:21:40;26.90;99.90
13892;DHT22;7016;48.172;8.058;2023-06-22T14:24:27;26.80;99.90
13892;DHT22;7016;48.172;8.058;2023-06-22T14:27:13;26.90;99.90
13892;DHT22;7016;48.172;8.058;2023-06-22T14:29:59;26.90;99.90
13892;DHT22;7016;48.172;8.058;2023-06-22T14:32:45;26.90;99.90
13892;DHT22;7016;48.172;8.058;2023-06-22T14:35:31;26.80;99.90
13892;DHT22;7016;48.172;8.058;2023-06-22T14:38:17;26.80;99.90
13892;DHT22;7016;48.172;8.058;2023-06-22T14:41:08;26.80;99.90
13892;DHT22;7016;48.172;8.058;2023-06-22T14:43:56;26.80;99.90
13892;DHT22;7016;48.172;8.058;2023-06-22T14:46:43;26.90;99.90
13892;DHT22;7016;48.172;8.058;2023-06-22T14:49:29;26.80;99.90
13892;DHT22;7016;48.172;8.058;2023-06-22T14:52:15;26.80;99.90
13892;DHT22;7016;48.172;8.058;2023-06-22T14:55:01;26.80;99.90
13892;DHT22;7016;48.172;8.058;2023-06-22T14:57:47;26.80;99.90
13892;DHT22;7016;48.172;8.058;2023-06-22T15:00:33;26.80;99.90
13892;DHT22;7016;48.172;8.058;2023-06-22T15:03:20;26.80;99.90
13892;DHT22;7016;48.172;8.058;2023-06-22T15:06:11;26.80;99.90
13892;DHT22;7016;48.172;8.058;2023-06-22T15:08:57;27.10;99.90
13892;DHT22;7016;48.172;8.058;2023-06-22T15:11:44;27.10;99.90
13892;DHT22;7016;48.172;8.058;2023-06-22T15:14:30;27.10;99.90
13892;DHT22;7016;48.172;8.058;2023-06-22T15:17:16;27.10;99.90
13892;DHT22;7016;48.172;8.058;2023-06-22T15:20:03;27.00;99.90
13892;DHT22;7016;48.172;8.058;2023-06-22T15:22:51;26.90;99.90
13892;DHT22;7016;48.172;8.058;2023-06-22T15:25:37;26.80;99.90
13892;DHT22;7016;48.172;8.058;2023-06-22T15:28:24;26.90;99.90
13892;DHT22;7016;48.172;8.058;2023-06-22T15:31:10;26.80;99.90
13892;DHT22;7016;48.172;8.058;2023-06-22T15:33:56;26.70;99.90
13892;DHT22;7016;48.172;8.058;2023-06-22T15:36:42;26.70;99.90
13892;DHT22;7016;48.172;8.058;2023-06-22T15:39:28;26.80;99.90
13892;DHT22;7016;48.172;8.058;2023-06-22T15:42:14;26.90;99.90
13892;DHT22;7016;48.172;8.058;2023-06-22T15:45:01;27.00;99.90
13892;DHT22;7016;48.172;8.058;2023-06-22T15:47:47;27.10;99.90
13892;DHT22;7016;48.172;8.058;2023-06-22T15:50:33;27.10;99.90
13892;DHT22;7016;48.172;8.058;2023-06-22T15:53:19;27.10;99.90
13892;DHT22;7016;48.172;8.058;2023-06-22T15:56:06;27.10;99.90
13892;DHT22;7016;48.172;8.058;2023-06-22T15:58:55;27.10;99.90
13892;DHT22;7016;48.172;8.058;2023-06-22T16:01:42;26.80;99.30
13892;DHT22;7016;48.172;8.058;2023-06-22T16:04:28;26.80;99.90
13892;DHT22;7016;48.172;8.058;2023-06-22T16:07:15;26.90;99.90
13892;DHT22;7016;48.172;8.058;2023-06-22T16:10:01;27.00;99.90
13892;DHT22;7016;48.172;8.058;2023-06-22T16:12:47;27.10;99.90
13892;DHT22;7016;48.172;8.058;2023-06-22T16:15:35;27.10;99.90
13892;DHT22;7016;48.172;8.058;2023-06-22T16:18:21;27.10;99.90
13892;DHT22;7016;48.172;8.058;2023-06-22T16:21:07;27.00;99.90
13892;DHT22;7016;48.172;8.058;2023-06-22T16:23:53;27.00;99.90
13892;DHT22;7016;48.172;8.058;2023-06-22T16:26:41;26.90;99.90
13892;DHT22;7016;48.172;8.058;2023-06-22T16:29:27;27.00;99.90
13892;DHT22;7016;48.172;8.058;2023-06-22T16:32:13;27.00;99.90
13892;DHT22;7016;48.172;8.058;2023-06-22T16:35:01;26.90;99.90
13892;DHT22;7016;48.172;8.058;2023-06-22T16:37:47;26.90;99.90
13892;DHT22;7016;48.172;8.058;2023-06-22T16:40:33;27.00;99.90
13892;DHT22;7016;48.172;8.058;2023-06-22T16:43:20;27.10;99.90
13892;DHT22;7016;48.172;8.058;2023-06-22T16:46:08;26.90;99.90
13892;DHT22;7016;48.172;8.058;2023-06-22T16:48:54;26.80;99.90
13892;DHT22;7016;48.172;8.058;2023-06-22T16:51:40;26.70;99.90
13892;DHT22;7016;48.172;8.058;2023-06-22T16:54:29;26.70;99.90
13892;DHT22;7016;48.172;8.058;2023-06-22T16:57:15;26.50;99.90
13892;DHT22;7016;48.172;8.058;2023-06-22T17:00:03;26.50;99.90
13892;DHT22;7016;48.172;8.058;2023-06-22T17:02:56;26.50;99.90
13892;DHT22;7016;48.172;8.058;2023-06-22T17:05:42;26.40;99.90
13892;DHT22;7016;48.172;8.058;2023-06-22T17:08:30;26.40;99.90
13892;DHT22;7016;48.172;8.058;2023-06-22T17:11:25;26.30;99.90
13892;DHT22;7016;48.172;8.058;2023-06-22T17:14:21;26.30;99.90
13892;DHT22;7016;48.172;8.058;2023-06-22T17:17:16;26.20;99.90
13892;DHT22;7016;48.172;8.058;2023-06-22T17:20:03;26.30;99.90
13892;DHT22;7016;48.172;8.058;2023-06-22T17:22:50;26.30;99.90
13892;DHT22;7016;48.172;8.058;2023-06-22T17:25:36;26.20;99.90
13892;DHT22;7016;48.172;8.058;2023-06-22T17:28:23;26.20;99.90
13892;DHT22;7016;48.172;8.058;2023-06-22T17:31:12;26.10;99.90
13892;DHT22;7016;48.172;8.058;2023-06-22T17:33:58;26.10;99.90
13892;DHT22;7016;48.172;8.058;2023-06-22T17:36:48;26.10;99.80
13892;DHT22;7016;48.172;8.058;2023-06-22T17:39:36;26.10;99.90
13892;DHT22;7016;48.172;8.058;2023-06-22T17:42:22;26.00;99.90
13892;DHT22;7016;48.172;8.058;2023-06-22T17:48:01;26.00;99.90
13892;DHT22;7016;48.172;8.058;2023-06-22T17:50:48;25.90;99.90
13892;DHT22;7016;48.172;8.058;2023-06-22T17:53:36;25.90;99.90
13892;DHT22;7016;48.172;8.058;2023-06-22T17:56:22;26.00;99.90
13892;DHT22;7016;48.172;8.058;2023-06-22T17:59:08;25.90;99.90
13892;DHT22;7016;48.172;8.058;2023-06-22T18:01:54;25.90;99.90
13892;DHT22;7016;48.172;8.058;2023-06-22T18:04:40;25.90;99.90